sensor_id;sensor_type;location;lat;lon;timestamp;temperature;humidity
56076;DHT22;41951;49.022;12.066;2024-03-22T00:00:55;8.00;99.90
56076;DHT22;41951;49.022;12.066;2024-03-22T00:03:21;8.00;99.90
56076;DHT22;41951;49.022;12.066;2024-03-22T00:05:47;8.00;99.90
56076;DHT22;41951;49.022;12.066;2024-03-22T00:08:13;7.90;99.90
56076;DHT22;41951;49.022;12.066;2024-03-22T00:10:38;7.90;99.90
56076;DHT22;41951;49.022;12.066;2024-03-22T00:13:04;7.90;99.90
56076;DHT22;41951;49.022;12.066;2024-03-22T00:15:30;7.80;99.90
56076;DHT22;41951;49.022;12.066;2024-03-22T00:17:55;7.70;99.90
56076;DHT22;41951;49.022;12.066;2024-03-22T00:20:21;7.60;99.90
56076;DHT22;41951;49.022;12.066;2024-03-22T00:22:46;7.60;99.90
56076;DHT22;41951;49.022;12.066;2024-03-22T00:25:12;7.60;99.90
56076;DHT22;41951;49.022;12.066;2024-03-22T00:27:37;7.60;99.90
56076;DHT22;41951;49.022;12.066;2024-03-22T00:30:06;7.60;99.90
56076;DHT22;41951;49.022;12.066;2024-03-22T00:32:31;7.50;99.90
56076;DHT22;41951;49.022;12.066;2024-03-22T00:34:57;7.50;99.90
56076;DHT22;41951;49.022;12.066;2024-03-22T00:37:22;7.40;99.90
56076;DHT22;41951;49.022;12.066;2024-03-22T00:39:48;7.50;99.90
56076;DHT22;41951;49.022;12.066;2024-03-22T00:42:14;7.40;99.90
56076;DHT22;41951;49.022;12.066;2024-03-22T00:44:39;7.40;99.90
56076;DHT22;41951;49.022;12.066;2024-03-22T00:47:05;7.30;99.90
56076;DHT22;41951;49.022;12.066;2024-03-22T00:49:31;7.20;99.90
56076;DHT22;41951;49.022;12.066;2024-03-22T00:51:57;7.20;99.90
56076;DHT22;41951;49.022;12.066;2024-03-22T00:54:23;7.20;99.90
56076;DHT22;41951;49.022;12.066;2024-03-22T00:56:48;7.20;99.90
56076;DHT22;41951;49.022;12.066;2024-03-22T00:59:14;7.20;99.90
56076;DHT22;41951;49.022;12.066;2024-03-22T01:01:43;7.20;99.90
56076;DHT22;41951;49.022;12.066;2024-03-22T01:04:09;7.10;99.90
56076;DHT22;41951;49.022;12.066;2024-03-22T01:06:35;7.10;99.90
56076;DHT22;41951;49.022;12.066;2024-03-22T01:09:00;6.90;99.90
56076;DHT22;41951;49.022;12.066;2024-03-22T01:11:29;6.90;99.90
56076;DHT22;41951;49.022;12.066;2024-03-22T01:13:54;6.80;99.90
56076;DHT22;41951;49.022;12.066;2024-03-22T01:16:20;6.90;99.90
56076;DHT22;41951;49.022;12.066;2024-03-22T01:18:45;6.90;99.90
56076;DHT22;41951;49.022;12.066;2024-03-22T01:21:11;6.90;99.90
56076;DHT22;41951;49.022;12.066;2024-03-22T01:23:36;6.90;99.90
56076;DHT22;41951;49.022;12.066;2024-03-22T01:26:02;6.90;99.90
56076;DHT22;41951;49.022;12.066;2024-03-22T01:28:28;6.90;99.90
56076;DHT22;41951;49.022;12.066;2024-03-22T01:30:53;6.90;99.90
56076;DHT22;41951;49.022;12.066;2024-03-22T01:33:19;6.90;99.90
56076;DHT22;41951;49.022;12.066;2024-03-22T01:35:44;6.90;99.90
56076;DHT22;41951;49.022;12.066;2024-03-22T01:38:10;6.80;99.90
56076;DHT22;41951;49.022;12.066;2024-03-22T01:40:36;6.90;99.90
56076;DHT22;41951;49.022;12.066;2024-03-22T01:43:01;6.90;99.90
56076;DHT22;41951;49.022;12.066;2024-03-22T01:45:32;6.90;99.90
56076;DHT22;41951;49.022;12.066;2024-03-22T01:47:58;6.90;99.90
56076;DHT22;41951;49.022;12.066;2024-03-22T01:50:25;6.90;99.90
56076;DHT22;41951;49.022;12.066;2024-03-22T01:52:51;6.90;99.90
56076;DHT22;41951;49.022;12.066;2024-03-22T01:55:17;6.80;99.90
56076;DHT22;41951;49.022;12.066;2024-03-22T01:57:43;6.80;99.90
56076;DHT22;41951;49.022;12.066;2024-03-22T02:00:09;6.70;99.90
56076;DHT22;41951;49.022;12.066;2024-03-22T02:02:35;6.70;99.90
56076;DHT22;41951;49.022;12.066;2024-03-22T02:05:15;6.70;99.90
56076;DHT22;41951;49.022;12.066;2024-03-22T02:07:41;6.70;99.90
56076;DHT22;41951;49.022;12.066;2024-03-22T02:10:08;6.70;99.90
56076;DHT22;41951;49.022;12.066;2024-03-22T02:12:37;6.60;99.90
56076;DHT22;41951;49.022;12.066;2024-03-22T02:15:02;6.60;99.90
56076;DHT22;41951;49.022;12.066;2024-03-22T02:17:28;6.60;99.90
56076;DHT22;41951;49.022;12.066;2024-03-22T02:19:54;6.60;99.90
56076;DHT22;41951;49.022;12.066;2024-03-22T02:22:19;6.60;99.90
56076;DHT22;41951;49.022;12.066;2024-03-22T02:24:45;6.60;99.90
56076;DHT22;41951;49.022;12.066;2024-03-22T02:27:10;6.60;99.90
56076;DHT22;41951;49.022;12.066;2024-03-22T02:29:36;6.70;99.90
56076;DHT22;41951;49.022;12.066;2024-03-22T02:32:02;6.60;99.90
56076;DHT22;41951;49.022;12.066;2024-03-22T02:34:28;6.60;99.90
56076;DHT22;41951;49.022;12.066;2024-03-22T02:36:54;6.50;99.90
56076;DHT22;41951;49.022;12.066;2024-03-22T02:39:20;6.40;99.90
56076;DHT22;41951;49.022;12.066;2024-03-22T02:41:45;6.40;99.90
56076;DHT22;41951;49.022;12.066;2024-03-22T02:44:11;6.40;99.90
56076;DHT22;41951;49.022;12.066;2024-03-22T02:46:36;6.40;99.90
56076;DHT22;41951;49.022;12.066;2024-03-22T02:49:02;6.40;99.90
56076;DHT22;41951;49.022;12.066;2024-03-22T02:51:27;6.40;99.90
56076;DHT22;41951;49.022;12.066;2024-03-22T02:53:53;6.40;99.90
56076;DHT22;41951;49.022;12.066;2024-03-22T02:56:18;6.40;99.90
56076;DHT22;41951;49.022;12.066;2024-03-22T02:58:44;6.40;99.90
56076;DHT22;41951;49.022;12.066;2024-03-22T03:01:09;6.30;99.90
56076;DHT22;41951;49.022;12.066;2024-03-22T03:03:35;6.20;99.90
56076;DHT22;41951;49.022;12.066;2024-03-22T03:06:01;6.10;99.90
56076;DHT22;41951;49.022;12.066;2024-03-22T03:08:26;6.10;99.90
56076;DHT22;41951;49.022;12.066;2024-03-22T03:10:58;6.10;99.90
56076;DHT22;41951;49.022;12.066;2024-03-22T03:13:23;6.10;99.90
56076;DHT22;41951;49.022;12.066;2024-03-22T03:15:49;6.00;99.90
56076;DHT22;41951;49.022;12.066;2024-03-22T03:18:15;6.10;99.90
56076;DHT22;41951;49.022;12.066;2024-03-22T03:20:40;6.10;99.90
56076;DHT22;41951;49.022;12.066;2024-03-22T03:23:06;6.10;99.90
56076;DHT22;41951;49.022;12.066;2024-03-22T03:25:31;6.10;99.90
56076;DHT22;41951;49.022;12.066;2024-03-22T03:27:57;6.10;99.90
56076;DHT22;41951;49.022;12.066;2024-03-22T03:30:22;6.20;99.90
56076;DHT22;41951;49.022;12.066;2024-03-22T03:32:48;6.20;99.90
56076;DHT22;41951;49.022;12.066;2024-03-22T03:35:14;6.20;99.90
56076;DHT22;41951;49.022;12.066;2024-03-22T03:37:39;6.20;99.90
56076;DHT22;41951;49.022;12.066;2024-03-22T03:40:05;6.20;99.90
56076;DHT22;41951;49.022;12.066;2024-03-22T03:42:31;6.10;99.90
56076;DHT22;41951;49.022;12.066;2024-03-22T03:44:57;6.10;99.90
56076;DHT22;41951;49.022;12.066;2024-03-22T03:47:22;6.10;99.90
56076;DHT22;41951;49.022;12.066;2024-03-22T03:49:51;6.00;99.90
56076;DHT22;41951;49.022;12.066;2024-03-22T03:52:17;6.00;99.90
56076;DHT22;41951;49.022;12.066;2024-03-22T03:54:43;6.00;99.90
56076;DHT22;41951;49.022;12.066;2024-03-22T03:57:09;6.00;99.90
56076;DHT22;41951;49.022;12.066;2024-03-22T03:59:34;6.00;99.90
56076;DHT22;41951;49.022;12.066;2024-03-22T04:02:00;5.80;99.90
56076;DHT22;41951;49.022;12.066;2024-03-22T04:04:26;5.80;99.90
56076;DHT22;41951;49.022;12.066;2024-03-22T04:06:51;5.80;99.90
56076;DHT22;41951;49.022;12.066;2024-03-22T04:09:17;5.80;99.90
56076;DHT22;41951;49.022;12.066;2024-03-22T04:11:42;5.70;99.90
56076;DHT22;41951;49.022;12.066;2024-03-22T04:14:09;5.70;99.90
56076;DHT22;41951;49.022;12.066;2024-03-22T04:16:35;5.70;99.90
56076;DHT22;41951;49.022;12.066;2024-03-22T04:19:00;5.70;99.90
56076;DHT22;41951;49.022;12.066;2024-03-22T04:21:26;5.60;99.90
56076;DHT22;41951;49.022;12.066;2024-03-22T04:23:51;5.70;99.90
56076;DHT22;41951;49.022;12.066;2024-03-22T04:26:17;5.70;99.90
56076;DHT22;41951;49.022;12.066;2024-03-22T04:28:44;5.70;99.90
56076;DHT22;41951;49.022;12.066;2024-03-22T04:31:09;5.70;99.90
56076;DHT22;41951;49.022;12.066;2024-03-22T04:33:37;5.60;99.90
56076;DHT22;41951;49.022;12.066;2024-03-22T04:36:03;5.60;99.90
56076;DHT22;41951;49.022;12.066;2024-03-22T04:38:29;5.60;99.90
56076;DHT22;41951;49.022;12.066;2024-03-22T04:40:56;5.60;99.90
56076;DHT22;41951;49.022;12.066;2024-03-22T04:43:23;5.60;99.90
56076;DHT22;41951;49.022;12.066;2024-03-22T04:45:49;5.50;99.90
56076;DHT22;41951;49.022;12.066;2024-03-22T04:48:18;5.50;99.90
56076;DHT22;41951;49.022;12.066;2024-03-22T04:50:44;5.50;99.90
56076;DHT22;41951;49.022;12.066;2024-03-22T04:53:10;4.90;99.90
56076;DHT22;41951;49.022;12.066;2024-03-22T04:55:36;5.50;99.90
56076;DHT22;41951;49.022;12.066;2024-03-22T04:58:02;5.50;99.90
56076;DHT22;41951;49.022;12.066;2024-03-22T05:00:30;5.40;99.90
56076;DHT22;41951;49.022;12.066;2024-03-22T05:02:56;5.40;99.90
56076;DHT22;41951;49.022;12.066;2024-03-22T05:05:21;5.40;99.90
56076;DHT22;41951;49.022;12.066;2024-03-22T05:07:47;5.40;99.90
56076;DHT22;41951;49.022;12.066;2024-03-22T05:10:13;5.40;99.90
56076;DHT22;41951;49.022;12.066;2024-03-22T05:12:39;5.20;99.90
56076;DHT22;41951;49.022;12.066;2024-03-22T05:15:06;5.20;99.90
56076;DHT22;41951;49.022;12.066;2024-03-22T05:17:31;5.10;99.90
56076;DHT22;41951;49.022;12.066;2024-03-22T05:20:01;5.10;99.90
56076;DHT22;41951;49.022;12.066;2024-03-22T05:22:31;5.10;99.90
56076;DHT22;41951;49.022;12.066;2024-03-22T05:24:56;5.10;99.90
56076;DHT22;41951;49.022;12.066;2024-03-22T05:27:22;5.10;99.90
56076;DHT22;41951;49.022;12.066;2024-03-22T05:29:47;5.10;99.90
56076;DHT22;41951;49.022;12.066;2024-03-22T05:32:13;5.30;99.90
56076;DHT22;41951;49.022;12.066;2024-03-22T05:34:39;5.30;99.90
56076;DHT22;41951;49.022;12.066;2024-03-22T05:37:04;5.20;99.90
56076;DHT22;41951;49.022;12.066;2024-03-22T05:39:30;5.20;99.90
56076;DHT22;41951;49.022;12.066;2024-03-22T05:41:55;5.10;99.90
56076;DHT22;41951;49.022;12.066;2024-03-22T05:44:24;5.00;99.90
56076;DHT22;41951;49.022;12.066;2024-03-22T05:46:50;5.00;99.90
56076;DHT22;41951;49.022;12.066;2024-03-22T05:49:16;5.00;99.90
56076;DHT22;41951;49.022;12.066;2024-03-22T05:51:41;5.00;99.90
56076;DHT22;41951;49.022;12.066;2024-03-22T05:54:07;5.00;99.90
56076;DHT22;41951;49.022;12.066;2024-03-22T05:56:32;5.10;99.90
56076;DHT22;41951;49.022;12.066;2024-03-22T05:58:58;5.10;99.90
56076;DHT22;41951;49.022;12.066;2024-03-22T06:01:24;5.10;99.90
56076;DHT22;41951;49.022;12.066;2024-03-22T06:03:50;5.10;99.90
56076;DHT22;41951;49.022;12.066;2024-03-22T06:06:16;5.10;99.90
56076;DHT22;41951;49.022;12.066;2024-03-22T06:08:41;5.10;99.90
56076;DHT22;41951;49.022;12.066;2024-03-22T06:11:09;5.10;99.90
56076;DHT22;41951;49.022;12.066;2024-03-22T06:13:35;5.10;99.90
56076;DHT22;41951;49.022;12.066;2024-03-22T06:16:01;5.10;99.90
56076;DHT22;41951;49.022;12.066;2024-03-22T06:18:27;5.20;99.90
56076;DHT22;41951;49.022;12.066;2024-03-22T06:20:53;5.30;99.90
56076;DHT22;41951;49.022;12.066;2024-03-22T06:23:23;5.30;99.90
56076;DHT22;41951;49.022;12.066;2024-03-22T06:25:52;5.30;99.90
56076;DHT22;41951;49.022;12.066;2024-03-22T06:28:18;5.30;99.90
56076;DHT22;41951;49.022;12.066;2024-03-22T06:30:43;5.30;99.90
56076;DHT22;41951;49.022;12.066;2024-03-22T06:33:09;5.50;99.90
56076;DHT22;41951;49.022;12.066;2024-03-22T06:35:35;5.20;99.90
56076;DHT22;41951;49.022;12.066;2024-03-22T06:38:00;5.30;99.90
56076;DHT22;41951;49.022;12.066;2024-03-22T06:40:28;5.30;99.90
56076;DHT22;41951;49.022;12.066;2024-03-22T06:42:54;5.40;99.90
56076;DHT22;41951;49.022;12.066;2024-03-22T06:45:19;5.40;99.90
56076;DHT22;41951;49.022;12.066;2024-03-22T06:47:45;5.40;99.90
56076;DHT22;41951;49.022;12.066;2024-03-22T06:50:11;5.50;99.90
56076;DHT22;41951;49.022;12.066;2024-03-22T06:52:37;5.70;99.90
56076;DHT22;41951;49.022;12.066;2024-03-22T06:55:03;5.70;99.90
56076;DHT22;41951;49.022;12.066;2024-03-22T06:57:29;5.80;99.90
56076;DHT22;41951;49.022;12.066;2024-03-22T06:59:54;5.80;99.90
56076;DHT22;41951;49.022;12.066;2024-03-22T07:02:20;5.80;99.90
56076;DHT22;41951;49.022;12.066;2024-03-22T07:04:45;5.80;99.90
56076;DHT22;41951;49.022;12.066;2024-03-22T07:07:11;5.90;99.90
56076;DHT22;41951;49.022;12.066;2024-03-22T07:09:37;5.90;99.90
56076;DHT22;41951;49.022;12.066;2024-03-22T07:12:02;6.00;99.90
56076;DHT22;41951;49.022;12.066;2024-03-22T07:14:29;6.00;99.90
56076;DHT22;41951;49.022;12.066;2024-03-22T07:16:54;6.10;99.90
56076;DHT22;41951;49.022;12.066;2024-03-22T07:19:20;6.10;99.90
56076;DHT22;41951;49.022;12.066;2024-03-22T07:21:46;6.10;99.90
56076;DHT22;41951;49.022;12.066;2024-03-22T07:24:12;6.20;99.90
56076;DHT22;41951;49.022;12.066;2024-03-22T07:26:38;6.20;99.90
56076;DHT22;41951;49.022;12.066;2024-03-22T07:29:03;6.20;99.90
56076;DHT22;41951;49.022;12.066;2024-03-22T07:31:29;6.40;99.90
56076;DHT22;41951;49.022;12.066;2024-03-22T07:33:54;6.40;99.90
56076;DHT22;41951;49.022;12.066;2024-03-22T07:36:21;6.40;99.90
56076;DHT22;41951;49.022;12.066;2024-03-22T07:38:47;6.40;99.90
56076;DHT22;41951;49.022;12.066;2024-03-22T07:41:14;6.40;99.90
56076;DHT22;41951;49.022;12.066;2024-03-22T07:43:40;6.50;99.90
56076;DHT22;41951;49.022;12.066;2024-03-22T07:46:05;6.60;99.90
56076;DHT22;41951;49.022;12.066;2024-03-22T07:48:31;6.70;99.90
56076;DHT22;41951;49.022;12.066;2024-03-22T07:51:00;6.60;99.90
56076;DHT22;41951;49.022;12.066;2024-03-22T07:53:26;6.70;99.90
56076;DHT22;41951;49.022;12.066;2024-03-22T07:55:52;6.70;99.90
56076;DHT22;41951;49.022;12.066;2024-03-22T07:58:19;6.80;99.90
56076;DHT22;41951;49.022;12.066;2024-03-22T08:00:44;6.80;99.90
56076;DHT22;41951;49.022;12.066;2024-03-22T08:03:16;6.80;99.90
56076;DHT22;41951;49.022;12.066;2024-03-22T08:05:42;6.80;99.90
56076;DHT22;41951;49.022;12.066;2024-03-22T08:08:08;6.80;99.90
56076;DHT22;41951;49.022;12.066;2024-03-22T08:10:34;6.90;99.90
56076;DHT22;41951;49.022;12.066;2024-03-22T08:13:00;6.90;99.90
56076;DHT22;41951;49.022;12.066;2024-03-22T08:15:29;7.00;99.90
56076;DHT22;41951;49.022;12.066;2024-03-22T08:17:55;7.10;99.90
56076;DHT22;41951;49.022;12.066;2024-03-22T08:20:23;7.10;99.90
56076;DHT22;41951;49.022;12.066;2024-03-22T08:22:48;7.10;99.90
56076;DHT22;41951;49.022;12.066;2024-03-22T08:25:14;7.20;99.90
56076;DHT22;41951;49.022;12.066;2024-03-22T08:27:46;7.20;99.90
56076;DHT22;41951;49.022;12.066;2024-03-22T08:30:12;7.30;99.90
56076;DHT22;41951;49.022;12.066;2024-03-22T08:32:38;7.40;99.90
56076;DHT22;41951;49.022;12.066;2024-03-22T08:35:03;7.40;99.90
56076;DHT22;41951;49.022;12.066;2024-03-22T08:37:33;7.40;99.90
56076;DHT22;41951;49.022;12.066;2024-03-22T08:39:59;7.50;99.90
56076;DHT22;41951;49.022;12.066;2024-03-22T08:42:24;7.50;99.90
56076;DHT22;41951;49.022;12.066;2024-03-22T08:44:50;7.60;99.90
56076;DHT22;41951;49.022;12.066;2024-03-22T08:47:15;7.60;99.90
56076;DHT22;41951;49.022;12.066;2024-03-22T08:49:41;7.60;99.90
56076;DHT22;41951;49.022;12.066;2024-03-22T08:52:09;7.70;99.90
56076;DHT22;41951;49.022;12.066;2024-03-22T08:54:34;7.80;99.90
56076;DHT22;41951;49.022;12.066;2024-03-22T08:57:00;7.80;99.90
56076;DHT22;41951;49.022;12.066;2024-03-22T08:59:25;7.80;99.90
56076;DHT22;41951;49.022;12.066;2024-03-22T09:01:52;7.70;99.90
56076;DHT22;41951;49.022;12.066;2024-03-22T09:04:17;7.80;99.90
56076;DHT22;41951;49.022;12.066;2024-03-22T09:06:43;7.90;99.90
56076;DHT22;41951;49.022;12.066;2024-03-22T09:09:08;7.90;99.90
56076;DHT22;41951;49.022;12.066;2024-03-22T09:11:34;8.10;99.90
56076;DHT22;41951;49.022;12.066;2024-03-22T09:14:00;8.20;99.90
56076;DHT22;41951;49.022;12.066;2024-03-22T09:16:25;8.40;99.90
56076;DHT22;41951;49.022;12.066;2024-03-22T09:18:51;8.50;99.90
56076;DHT22;41951;49.022;12.066;2024-03-22T09:21:16;8.70;99.90
56076;DHT22;41951;49.022;12.066;2024-03-22T09:23:42;8.80;99.90
56076;DHT22;41951;49.022;12.066;2024-03-22T09:26:08;8.90;99.90
56076;DHT22;41951;49.022;12.066;2024-03-22T09:28:33;9.00;99.90
56076;DHT22;41951;49.022;12.066;2024-03-22T09:31:04;9.20;99.90
56076;DHT22;41951;49.022;12.066;2024-03-22T09:33:31;9.30;99.90
56076;DHT22;41951;49.022;12.066;2024-03-22T09:35:57;9.30;99.90
56076;DHT22;41951;49.022;12.066;2024-03-22T09:38:22;9.50;99.90
56076;DHT22;41951;49.022;12.066;2024-03-22T09:40:48;9.70;99.90
56076;DHT22;41951;49.022;12.066;2024-03-22T09:43:15;9.90;99.90
56076;DHT22;41951;49.022;12.066;2024-03-22T09:45:44;10.00;99.90
56076;DHT22;41951;49.022;12.066;2024-03-22T09:48:10;10.10;99.90
56076;DHT22;41951;49.022;12.066;2024-03-22T09:50:36;10.20;99.90
56076;DHT22;41951;49.022;12.066;2024-03-22T09:53:03;10.30;99.90
56076;DHT22;41951;49.022;12.066;2024-03-22T09:55:30;10.30;99.90
56076;DHT22;41951;49.022;12.066;2024-03-22T09:57:57;10.50;99.90
56076;DHT22;41951;49.022;12.066;2024-03-22T10:00:23;10.50;99.90
56076;DHT22;41951;49.022;12.066;2024-03-22T10:02:51;10.60;99.90
56076;DHT22;41951;49.022;12.066;2024-03-22T10:05:18;10.70;99.90
56076;DHT22;41951;49.022;12.066;2024-03-22T10:07:44;10.60;99.90
56076;DHT22;41951;49.022;12.066;2024-03-22T10:10:10;10.60;99.90
56076;DHT22;41951;49.022;12.066;2024-03-22T10:12:36;10.70;99.90
56076;DHT22;41951;49.022;12.066;2024-03-22T10:15:02;10.70;99.90
56076;DHT22;41951;49.022;12.066;2024-03-22T10:17:29;10.70;99.90
56076;DHT22;41951;49.022;12.066;2024-03-22T10:19:54;10.80;99.90
56076;DHT22;41951;49.022;12.066;2024-03-22T10:22:20;10.90;99.90
56076;DHT22;41951;49.022;12.066;2024-03-22T10:24:46;10.90;99.90
56076;DHT22;41951;49.022;12.066;2024-03-22T10:27:11;10.90;99.90
56076;DHT22;41951;49.022;12.066;2024-03-22T10:29:37;11.00;99.90
56076;DHT22;41951;49.022;12.066;2024-03-22T10:32:03;11.00;99.90
56076;DHT22;41951;49.022;12.066;2024-03-22T10:34:28;11.00;99.90
56076;DHT22;41951;49.022;12.066;2024-03-22T10:37:00;11.10;99.90
56076;DHT22;41951;49.022;12.066;2024-03-22T10:39:26;11.00;99.90
56076;DHT22;41951;49.022;12.066;2024-03-22T10:41:52;11.10;99.90
56076;DHT22;41951;49.022;12.066;2024-03-22T10:44:18;11.20;99.90
56076;DHT22;41951;49.022;12.066;2024-03-22T10:46:45;11.20;99.90
56076;DHT22;41951;49.022;12.066;2024-03-22T10:49:19;11.30;99.90
56076;DHT22;41951;49.022;12.066;2024-03-22T10:51:54;11.30;99.90
56076;DHT22;41951;49.022;12.066;2024-03-22T10:54:27;11.30;99.90
56076;DHT22;41951;49.022;12.066;2024-03-22T10:56:54;11.30;99.90
56076;DHT22;41951;49.022;12.066;2024-03-22T10:59:22;11.40;99.90
56076;DHT22;41951;49.022;12.066;2024-03-22T11:01:49;11.50;99.90
56076;DHT22;41951;49.022;12.066;2024-03-22T11:04:19;11.50;99.90
56076;DHT22;41951;49.022;12.066;2024-03-22T11:06:51;11.50;99.90
56076;DHT22;41951;49.022;12.066;2024-03-22T11:09:23;11.60;99.90
56076;DHT22;41951;49.022;12.066;2024-03-22T11:11:51;11.60;99.90
56076;DHT22;41951;49.022;12.066;2024-03-22T11:14:17;11.70;99.90
56076;DHT22;41951;49.022;12.066;2024-03-22T11:16:44;11.70;99.90
56076;DHT22;41951;49.022;12.066;2024-03-22T11:19:10;11.70;99.90
56076;DHT22;41951;49.022;12.066;2024-03-22T11:21:35;11.70;99.90
56076;DHT22;41951;49.022;12.066;2024-03-22T11:24:01;11.70;99.90
56076;DHT22;41951;49.022;12.066;2024-03-22T11:26:27;11.70;99.90
56076;DHT22;41951;49.022;12.066;2024-03-22T11:28:52;11.70;99.90
56076;DHT22;41951;49.022;12.066;2024-03-22T11:31:18;11.70;99.90
56076;DHT22;41951;49.022;12.066;2024-03-22T11:33:47;11.70;99.90
56076;DHT22;41951;49.022;12.066;2024-03-22T11:36:13;11.80;99.90
56076;DHT22;41951;49.022;12.066;2024-03-22T11:38:39;11.80;99.90
56076;DHT22;41951;49.022;12.066;2024-03-22T11:41:05;11.80;99.90
56076;DHT22;41951;49.022;12.066;2024-03-22T11:43:31;11.80;99.90
56076;DHT22;41951;49.022;12.066;2024-03-22T11:45:57;11.80;99.90
56076;DHT22;41951;49.022;12.066;2024-03-22T11:48:23;11.80;99.90
56076;DHT22;41951;49.022;12.066;2024-03-22T11:50:49;11.80;99.90
56076;DHT22;41951;49.022;12.066;2024-03-22T11:53:18;11.80;99.90
56076;DHT22;41951;49.022;12.066;2024-03-22T11:55:43;11.80;99.90
56076;DHT22;41951;49.022;12.066;2024-03-22T11:58:10;11.90;99.90
56076;DHT22;41951;49.022;12.066;2024-03-22T12:00:36;12.00;99.90
56076;DHT22;41951;49.022;12.066;2024-03-22T12:03:06;12.10;99.90
56076;DHT22;41951;49.022;12.066;2024-03-22T12:05:32;12.20;99.90
56076;DHT22;41951;49.022;12.066;2024-03-22T12:07:58;12.50;99.90
56076;DHT22;41951;49.022;12.066;2024-03-22T12:10:23;12.80;99.90
56076;DHT22;41951;49.022;12.066;2024-03-22T12:12:49;13.00;99.90
56076;DHT22;41951;49.022;12.066;2024-03-22T12:15:14;13.20;99.90
56076;DHT22;41951;49.022;12.066;2024-03-22T12:17:40;13.30;99.90
56076;DHT22;41951;49.022;12.066;2024-03-22T12:20:09;13.40;99.90
56076;DHT22;41951;49.022;12.066;2024-03-22T12:22:35;13.40;99.90
56076;DHT22;41951;49.022;12.066;2024-03-22T12:25:01;13.30;99.90
56076;DHT22;41951;49.022;12.066;2024-03-22T12:27:26;13.40;99.90
56076;DHT22;41951;49.022;12.066;2024-03-22T12:29:52;13.40;99.90
56076;DHT22;41951;49.022;12.066;2024-03-22T12:32:17;13.50;99.90
56076;DHT22;41951;49.022;12.066;2024-03-22T12:34:43;13.50;99.90
56076;DHT22;41951;49.022;12.066;2024-03-22T12:37:09;13.60;99.90
56076;DHT22;41951;49.022;12.066;2024-03-22T12:39:35;13.70;99.90
56076;DHT22;41951;49.022;12.066;2024-03-22T12:42:00;13.80;99.90
56076;DHT22;41951;49.022;12.066;2024-03-22T12:44:26;13.80;99.90
56076;DHT22;41951;49.022;12.066;2024-03-22T12:46:52;13.90;99.90
56076;DHT22;41951;49.022;12.066;2024-03-22T12:49:19;13.90;99.90
56076;DHT22;41951;49.022;12.066;2024-03-22T12:51:45;14.00;99.90
56076;DHT22;41951;49.022;12.066;2024-03-22T12:54:11;13.90;99.90
56076;DHT22;41951;49.022;12.066;2024-03-22T12:56:38;13.90;99.90
56076;DHT22;41951;49.022;12.066;2024-03-22T12:59:04;14.00;99.90
56076;DHT22;41951;49.022;12.066;2024-03-22T13:01:30;14.10;99.90
56076;DHT22;41951;49.022;12.066;2024-03-22T13:03:56;14.20;99.90
56076;DHT22;41951;49.022;12.066;2024-03-22T13:06:22;14.20;99.90
56076;DHT22;41951;49.022;12.066;2024-03-22T13:08:47;14.20;99.90
56076;DHT22;41951;49.022;12.066;2024-03-22T13:11:13;14.20;99.90
56076;DHT22;41951;49.022;12.066;2024-03-22T13:13:39;14.20;99.90
56076;DHT22;41951;49.022;12.066;2024-03-22T13:16:05;14.10;99.90
56076;DHT22;41951;49.022;12.066;2024-03-22T13:18:32;14.10;99.90
56076;DHT22;41951;49.022;12.066;2024-03-22T13:20:58;14.20;99.90
56076;DHT22;41951;49.022;12.066;2024-03-22T13:23:23;14.20;99.90
56076;DHT22;41951;49.022;12.066;2024-03-22T13:25:49;14.30;99.90
56076;DHT22;41951;49.022;12.066;2024-03-22T13:28:15;14.30;99.90
56076;DHT22;41951;49.022;12.066;2024-03-22T13:30:45;14.40;99.90
56076;DHT22;41951;49.022;12.066;2024-03-22T13:33:11;14.50;99.90
56076;DHT22;41951;49.022;12.066;2024-03-22T13:35:36;14.80;99.90
56076;DHT22;41951;49.022;12.066;2024-03-22T13:38:02;15.20;99.90
56076;DHT22;41951;49.022;12.066;2024-03-22T13:40:28;15.40;99.90
56076;DHT22;41951;49.022;12.066;2024-03-22T13:42:53;15.60;99.90
56076;DHT22;41951;49.022;12.066;2024-03-22T13:45:19;15.60;99.90
56076;DHT22;41951;49.022;12.066;2024-03-22T13:47:45;15.70;99.90
56076;DHT22;41951;49.022;12.066;2024-03-22T13:50:11;15.80;99.90
56076;DHT22;41951;49.022;12.066;2024-03-22T13:52:37;15.80;99.90
56076;DHT22;41951;49.022;12.066;2024-03-22T13:55:03;15.70;99.90
56076;DHT22;41951;49.022;12.066;2024-03-22T13:57:30;15.90;99.90
56076;DHT22;41951;49.022;12.066;2024-03-22T13:59:55;16.10;99.90
56076;DHT22;41951;49.022;12.066;2024-03-22T14:02:21;16.10;99.90
56076;DHT22;41951;49.022;12.066;2024-03-22T14:04:47;16.00;99.90
56076;DHT22;41951;49.022;12.066;2024-03-22T14:07:12;15.90;99.90
56076;DHT22;41951;49.022;12.066;2024-03-22T14:09:38;16.00;99.90
56076;DHT22;41951;49.022;12.066;2024-03-22T14:12:05;16.10;99.90
56076;DHT22;41951;49.022;12.066;2024-03-22T14:14:32;15.90;99.90
56076;DHT22;41951;49.022;12.066;2024-03-22T14:16:57;16.00;99.90
56076;DHT22;41951;49.022;12.066;2024-03-22T14:19:23;15.90;99.90
56076;DHT22;41951;49.022;12.066;2024-03-22T14:21:49;15.80;99.90
56076;DHT22;41951;49.022;12.066;2024-03-22T14:24:15;15.80;99.90
56076;DHT22;41951;49.022;12.066;2024-03-22T14:26:41;15.80;99.90
56076;DHT22;41951;49.022;12.066;2024-03-22T14:29:10;15.80;99.90
56076;DHT22;41951;49.022;12.066;2024-03-22T14:31:37;15.70;99.90
56076;DHT22;41951;49.022;12.066;2024-03-22T14:34:04;15.70;99.90
56076;DHT22;41951;49.022;12.066;2024-03-22T14:36:30;15.70;99.90
56076;DHT22;41951;49.022;12.066;2024-03-22T14:38:56;15.70;99.90
56076;DHT22;41951;49.022;12.066;2024-03-22T14:41:22;15.80;99.90
56076;DHT22;41951;49.022;12.066;2024-03-22T14:43:47;16.00;99.90
56076;DHT22;41951;49.022;12.066;2024-03-22T14:46:13;16.20;99.90
56076;DHT22;41951;49.022;12.066;2024-03-22T14:48:39;16.50;99.90
56076;DHT22;41951;49.022;12.066;2024-03-22T14:51:05;16.30;99.90
56076;DHT22;41951;49.022;12.066;2024-03-22T14:53:31;16.20;99.90
56076;DHT22;41951;49.022;12.066;2024-03-22T14:55:58;16.30;99.90
56076;DHT22;41951;49.022;12.066;2024-03-22T14:58:27;17.40;99.90
56076;DHT22;41951;49.022;12.066;2024-03-22T15:00:58;16.60;99.90
56076;DHT22;41951;49.022;12.066;2024-03-22T15:03:24;16.60;99.90
56076;DHT22;41951;49.022;12.066;2024-03-22T15:05:51;16.60;99.90
56076;DHT22;41951;49.022;12.066;2024-03-22T15:08:17;16.50;99.90
56076;DHT22;41951;49.022;12.066;2024-03-22T15:10:43;16.80;99.90
56076;DHT22;41951;49.022;12.066;2024-03-22T15:13:09;16.80;99.90
56076;DHT22;41951;49.022;12.066;2024-03-22T15:15:36;16.80;99.90
56076;DHT22;41951;49.022;12.066;2024-03-22T15:18:02;17.00;99.90